sensor_id;sensor_type;location;lat;lon;timestamp;P1;durP1;ratioP1;P2;durP2;ratioP2
4353;SDS011;11018;51.258;6.806;2023-07-20T00:01:15;10.38;;;6.05;;
4353;SDS011;11018;51.258;6.806;2023-07-20T00:03:40;9.57;;;5.45;;
4353;SDS011;11018;51.258;6.806;2023-07-20T00:06:06;9.75;;;5.60;;
4353;SDS011;11018;51.258;6.806;2023-07-20T00:08:32;11.23;;;6.13;;
4353;SDS011;11018;51.258;6.806;2023-07-20T00:10:58;10.93;;;5.97;;
4353;SDS011;11018;51.258;6.806;2023-07-20T00:13:23;11.20;;;5.10;;
4353;SDS011;11018;51.258;6.806;2023-07-20T00:15:49;9.82;;;5.70;;
4353;SDS011;11018;51.258;6.806;2023-07-20T00:18:14;9.95;;;5.72;;
4353;SDS011;11018;51.258;6.806;2023-07-20T00:20:40;11.07;;;5.93;;
4353;SDS011;11018;51.258;6.806;2023-07-20T00:23:06;10.00;;;5.80;;
4353;SDS011;11018;51.258;6.806;2023-07-20T00:25:31;16.33;;;6.40;;
4353;SDS011;11018;51.258;6.806;2023-07-20T00:27:57;12.32;;;6.00;;
4353;SDS011;11018;51.258;6.806;2023-07-20T00:30:22;10.13;;;5.67;;
4353;SDS011;11018;51.258;6.806;2023-07-20T00:32:48;11.20;;;6.20;;
4353;SDS011;11018;51.258;6.806;2023-07-20T00:35:14;10.65;;;6.63;;
4353;SDS011;11018;51.258;6.806;2023-07-20T00:37:39;11.80;;;6.00;;
4353;SDS011;11018;51.258;6.806;2023-07-20T00:40:06;10.00;;;6.80;;
4353;SDS011;11018;51.258;6.806;2023-07-20T00:42:35;14.30;;;6.60;;
4353;SDS011;11018;51.258;6.806;2023-07-20T00:45:01;11.13;;;5.60;;
4353;SDS011;11018;51.258;6.806;2023-07-20T00:47:26;13.73;;;5.78;;
4353;SDS011;11018;51.258;6.806;2023-07-20T00:49:52;8.93;;;5.80;;
4353;SDS011;11018;51.258;6.806;2023-07-20T00:52:19;7.88;;;5.43;;
4353;SDS011;11018;51.258;6.806;2023-07-20T00:54:46;13.57;;;5.47;;
4353;SDS011;11018;51.258;6.806;2023-07-20T00:57:13;14.07;;;5.60;;
4353;SDS011;11018;51.258;6.806;2023-07-20T00:59:40;7.78;;;5.35;;
4353;SDS011;11018;51.258;6.806;2023-07-20T01:02:05;12.25;;;5.22;;
4353;SDS011;11018;51.258;6.806;2023-07-20T01:04:31;9.20;;;5.07;;
4353;SDS011;11018;51.258;6.806;2023-07-20T01:07:00;8.48;;;4.80;;
4353;SDS011;11018;51.258;6.806;2023-07-20T01:12:06;10.73;;;5.70;;
4353;SDS011;11018;51.258;6.806;2023-07-20T01:14:34;9.70;;;5.70;;
4353;SDS011;11018;51.258;6.806;2023-07-20T01:17:01;12.32;;;5.80;;
4353;SDS011;11018;51.258;6.806;2023-07-20T01:19:27;7.30;;;5.80;;
4353;SDS011;11018;51.258;6.806;2023-07-20T01:22:00;12.40;;;6.07;;
4353;SDS011;11018;51.258;6.806;2023-07-20T01:27:15;7.60;;;5.53;;
4353;SDS011;11018;51.258;6.806;2023-07-20T01:32:51;8.10;;;5.40;;
4353;SDS011;11018;51.258;6.806;2023-07-20T01:35:20;14.20;;;6.30;;
4353;SDS011;11018;51.258;6.806;2023-07-20T01:37:51;10.45;;;5.97;;
4353;SDS011;11018;51.258;6.806;2023-07-20T01:40:19;10.52;;;5.97;;
4353;SDS011;11018;51.258;6.806;2023-07-20T01:42:47;11.90;;;6.20;;
4353;SDS011;11018;51.258;6.806;2023-07-20T01:45:13;8.98;;;6.00;;
4353;SDS011;11018;51.258;6.806;2023-07-20T01:47:39;11.30;;;6.25;;
4353;SDS011;11018;51.258;6.806;2023-07-20T01:50:05;15.37;;;6.67;;
4353;SDS011;11018;51.258;6.806;2023-07-20T01:52:31;12.15;;;6.40;;
4353;SDS011;11018;51.258;6.806;2023-07-20T01:54:56;11.88;;;6.40;;
4353;SDS011;11018;51.258;6.806;2023-07-20T01:57:22;10.55;;;6.30;;
4353;SDS011;11018;51.258;6.806;2023-07-20T01:59:48;15.77;;;6.33;;
4353;SDS011;11018;51.258;6.806;2023-07-20T02:02:13;13.00;;;7.07;;
4353;SDS011;11018;51.258;6.806;2023-07-20T02:04:39;10.10;;;6.10;;
4353;SDS011;11018;51.258;6.806;2023-07-20T02:07:05;10.20;;;6.50;;
4353;SDS011;11018;51.258;6.806;2023-07-20T02:09:30;10.37;;;6.40;;
4353;SDS011;11018;51.258;6.806;2023-07-20T02:11:56;9.27;;;6.27;;
4353;SDS011;11018;51.258;6.806;2023-07-20T02:14:21;11.20;;;5.60;;
4353;SDS011;11018;51.258;6.806;2023-07-20T02:16:50;14.23;;;6.22;;
4353;SDS011;11018;51.258;6.806;2023-07-20T02:19:22;11.73;;;6.60;;
4353;SDS011;11018;51.258;6.806;2023-07-20T02:21:49;13.43;;;6.50;;
4353;SDS011;11018;51.258;6.806;2023-07-20T02:24:15;10.70;;;5.90;;
4353;SDS011;11018;51.258;6.806;2023-07-20T02:26:40;14.13;;;6.13;;
4353;SDS011;11018;51.258;6.806;2023-07-20T02:29:07;12.57;;;5.88;;
4353;SDS011;11018;51.258;6.806;2023-07-20T02:31:33;10.07;;;5.80;;
4353;SDS011;11018;51.258;6.806;2023-07-20T02:33:58;9.57;;;5.60;;
4353;SDS011;11018;51.258;6.806;2023-07-20T02:36:24;11.50;;;6.03;;
4353;SDS011;11018;51.258;6.806;2023-07-20T02:38:50;11.15;;;6.20;;
4353;SDS011;11018;51.258;6.806;2023-07-20T02:41:15;11.13;;;5.97;;
4353;SDS011;11018;51.258;6.806;2023-07-20T02:43:41;12.53;;;6.20;;
4353;SDS011;11018;51.258;6.806;2023-07-20T02:46:06;11.40;;;6.80;;
4353;SDS011;11018;51.258;6.806;2023-07-20T02:48:32;12.47;;;6.60;;
4353;SDS011;11018;51.258;6.806;2023-07-20T02:50:57;12.47;;;7.00;;
4353;SDS011;11018;51.258;6.806;2023-07-20T02:53:23;10.10;;;6.70;;
4353;SDS011;11018;51.258;6.806;2023-07-20T02:55:48;10.25;;;6.90;;
4353;SDS011;11018;51.258;6.806;2023-07-20T02:58:14;9.93;;;6.90;;
4353;SDS011;11018;51.258;6.806;2023-07-20T03:00:40;13.73;;;7.03;;
4353;SDS011;11018;51.258;6.806;2023-07-20T03:03:08;11.65;;;6.18;;
4353;SDS011;11018;51.258;6.806;2023-07-20T03:05:34;11.52;;;6.75;;
4353;SDS011;11018;51.258;6.806;2023-07-20T03:08:02;9.07;;;6.75;;
4353;SDS011;11018;51.258;6.806;2023-07-20T03:10:31;10.57;;;7.15;;
4353;SDS011;11018;51.258;6.806;2023-07-20T03:12:57;13.48;;;7.35;;
4353;SDS011;11018;51.258;6.806;2023-07-20T03:15:22;15.65;;;6.82;;
4353;SDS011;11018;51.258;6.806;2023-07-20T03:17:48;15.70;;;7.20;;
4353;SDS011;11018;51.258;6.806;2023-07-20T03:20:13;11.17;;;7.00;;
4353;SDS011;11018;51.258;6.806;2023-07-20T03:22:39;16.30;;;7.50;;
4353;SDS011;11018;51.258;6.806;2023-07-20T03:25:04;10.93;;;7.30;;
4353;SDS011;11018;51.258;6.806;2023-07-20T03:27:30;13.60;;;7.70;;
4353;SDS011;11018;51.258;6.806;2023-07-20T03:29:56;13.10;;;6.65;;
4353;SDS011;11018;51.258;6.806;2023-07-20T03:32:21;14.80;;;7.20;;
4353;SDS011;11018;51.258;6.806;2023-07-20T03:34:47;15.03;;;7.60;;
4353;SDS011;11018;51.258;6.806;2023-07-20T03:37:13;11.77;;;6.90;;
4353;SDS011;11018;51.258;6.806;2023-07-20T03:39:38;12.23;;;7.63;;
4353;SDS011;11018;51.258;6.806;2023-07-20T03:42:04;15.30;;;8.03;;
4353;SDS011;11018;51.258;6.806;2023-07-20T03:44:30;14.23;;;7.30;;
4353;SDS011;11018;51.258;6.806;2023-07-20T03:46:55;13.93;;;7.00;;
4353;SDS011;11018;51.258;6.806;2023-07-20T03:49:21;14.43;;;7.80;;
4353;SDS011;11018;51.258;6.806;2023-07-20T03:51:46;13.38;;;7.28;;
4353;SDS011;11018;51.258;6.806;2023-07-20T03:54:12;11.60;;;7.70;;
4353;SDS011;11018;51.258;6.806;2023-07-20T03:56:38;19.50;;;8.17;;
4353;SDS011;11018;51.258;6.806;2023-07-20T03:59:04;17.60;;;8.23;;
4353;SDS011;11018;51.258;6.806;2023-07-20T04:01:30;15.25;;;8.20;;
4353;SDS011;11018;51.258;6.806;2023-07-20T04:03:59;16.52;;;9.25;;
4353;SDS011;11018;51.258;6.806;2023-07-20T04:06:24;15.20;;;8.70;;
4353;SDS011;11018;51.258;6.806;2023-07-20T04:08:50;15.87;;;9.17;;
4353;SDS011;11018;51.258;6.806;2023-07-20T04:11:15;21.55;;;9.55;;
4353;SDS011;11018;51.258;6.806;2023-07-20T04:13:41;16.50;;;8.97;;
4353;SDS011;11018;51.258;6.806;2023-07-20T04:16:06;15.30;;;9.80;;
4353;SDS011;11018;51.258;6.806;2023-07-20T04:18:32;17.38;;;9.45;;
4353;SDS011;11018;51.258;6.806;2023-07-20T04:20:57;18.87;;;9.70;;
4353;SDS011;11018;51.258;6.806;2023-07-20T04:23:23;19.43;;;10.17;;
4353;SDS011;11018;51.258;6.806;2023-07-20T04:25:49;18.30;;;10.02;;
4353;SDS011;11018;51.258;6.806;2023-07-20T04:28:14;21.73;;;10.40;;
4353;SDS011;11018;51.258;6.806;2023-07-20T04:30:40;18.27;;;10.10;;
4353;SDS011;11018;51.258;6.806;2023-07-20T04:33:05;15.25;;;9.60;;
4353;SDS011;11018;51.258;6.806;2023-07-20T04:35:47;17.55;;;10.90;;
4353;SDS011;11018;51.258;6.806;2023-07-20T04:38:17;20.23;;;11.32;;
4353;SDS011;11018;51.258;6.806;2023-07-20T04:40:47;21.40;;;11.57;;
4353;SDS011;11018;51.258;6.806;2023-07-20T04:43:17;19.80;;;11.60;;
4353;SDS011;11018;51.258;6.806;2023-07-20T04:45:43;19.40;;;11.20;;
4353;SDS011;11018;51.258;6.806;2023-07-20T04:48:15;20.75;;;9.88;;
4353;SDS011;11018;51.258;6.806;2023-07-20T04:50:42;17.37;;;10.80;;
4353;SDS011;11018;51.258;6.806;2023-07-20T04:53:12;19.98;;;11.75;;
4353;SDS011;11018;51.258;6.806;2023-07-20T04:55:39;21.17;;;11.77;;
4353;SDS011;11018;51.258;6.806;2023-07-20T04:58:05;23.40;;;12.07;;
4353;SDS011;11018;51.258;6.806;2023-07-20T05:00:34;22.23;;;12.43;;
4353;SDS011;11018;51.258;6.806;2023-07-20T05:03:00;23.20;;;14.25;;
4353;SDS011;11018;51.258;6.806;2023-07-20T05:05:26;24.77;;;13.17;;
4353;SDS011;11018;51.258;6.806;2023-07-20T05:07:51;23.67;;;13.20;;
4353;SDS011;11018;51.258;6.806;2023-07-20T05:10:17;22.92;;;13.30;;
4353;SDS011;11018;51.258;6.806;2023-07-20T05:12:43;24.08;;;13.88;;
4353;SDS011;11018;51.258;6.806;2023-07-20T05:15:08;28.85;;;15.23;;
4353;SDS011;11018;51.258;6.806;2023-07-20T05:17:34;27.90;;;15.60;;
4353;SDS011;11018;51.258;6.806;2023-07-20T05:20:00;27.00;;;14.97;;
4353;SDS011;11018;51.258;6.806;2023-07-20T05:22:26;26.60;;;16.50;;
4353;SDS011;11018;51.258;6.806;2023-07-20T05:24:51;32.83;;;18.30;;
4353;SDS011;11018;51.258;6.806;2023-07-20T05:27:17;28.58;;;17.45;;
4353;SDS011;11018;51.258;6.806;2023-07-20T05:29:45;29.00;;;18.30;;
4353;SDS011;11018;51.258;6.806;2023-07-20T05:32:12;29.03;;;19.23;;
4353;SDS011;11018;51.258;6.806;2023-07-20T05:34:38;31.98;;;19.20;;
4353;SDS011;11018;51.258;6.806;2023-07-20T05:37:03;31.02;;;18.38;;
4353;SDS011;11018;51.258;6.806;2023-07-20T05:39:29;31.10;;;19.70;;
4353;SDS011;11018;51.258;6.806;2023-07-20T05:41:57;36.67;;;20.67;;
4353;SDS011;11018;51.258;6.806;2023-07-20T05:44:23;31.23;;;20.40;;
4353;SDS011;11018;51.258;6.806;2023-07-20T05:46:48;28.92;;;19.30;;
4353;SDS011;11018;51.258;6.806;2023-07-20T05:49:14;26.77;;;19.27;;
4353;SDS011;11018;51.258;6.806;2023-07-20T05:51:39;26.03;;;18.47;;
4353;SDS011;11018;51.258;6.806;2023-07-20T05:54:05;29.95;;;19.30;;
4353;SDS011;11018;51.258;6.806;2023-07-20T05:56:31;26.05;;;18.10;;
4353;SDS011;11018;51.258;6.806;2023-07-20T05:58:57;33.88;;;18.65;;
4353;SDS011;11018;51.258;6.806;2023-07-20T06:01:22;31.13;;;19.70;;
4353;SDS011;11018;51.258;6.806;2023-07-20T06:03:48;30.03;;;18.70;;
4353;SDS011;11018;51.258;6.806;2023-07-20T06:06:13;26.30;;;17.77;;
4353;SDS011;11018;51.258;6.806;2023-07-20T06:08:40;26.33;;;17.60;;
4353;SDS011;11018;51.258;6.806;2023-07-20T06:11:05;26.38;;;18.00;;
4353;SDS011;11018;51.258;6.806;2023-07-20T06:13:31;28.77;;;18.20;;
4353;SDS011;11018;51.258;6.806;2023-07-20T06:15:56;24.40;;;16.10;;
4353;SDS011;11018;51.258;6.806;2023-07-20T06:18:22;22.27;;;16.67;;
4353;SDS011;11018;51.258;6.806;2023-07-20T06:20:49;22.77;;;15.33;;
4353;SDS011;11018;51.258;6.806;2023-07-20T06:23:15;25.08;;;16.80;;
4353;SDS011;11018;51.258;6.806;2023-07-20T06:25:41;26.55;;;17.70;;
4353;SDS011;11018;51.258;6.806;2023-07-20T06:28:07;24.47;;;16.80;;
4353;SDS011;11018;51.258;6.806;2023-07-20T06:30:33;24.50;;;15.60;;
4353;SDS011;11018;51.258;6.806;2023-07-20T06:32:59;27.73;;;19.93;;
4353;SDS011;11018;51.258;6.806;2023-07-20T06:35:25;32.73;;;19.70;;
4353;SDS011;11018;51.258;6.806;2023-07-20T06:37:51;22.40;;;17.77;;
4353;SDS011;11018;51.258;6.806;2023-07-20T06:40:17;22.90;;;16.07;;
4353;SDS011;11018;51.258;6.806;2023-07-20T06:42:42;24.20;;;15.60;;
4353;SDS011;11018;51.258;6.806;2023-07-20T06:45:08;20.05;;;13.40;;
4353;SDS011;11018;51.258;6.806;2023-07-20T06:47:34;19.17;;;14.10;;
4353;SDS011;11018;51.258;6.806;2023-07-20T06:50:00;23.87;;;15.23;;
4353;SDS011;11018;51.258;6.806;2023-07-20T06:52:25;17.02;;;11.95;;
4353;SDS011;11018;51.258;6.806;2023-07-20T06:54:51;17.30;;;12.85;;
4353;SDS011;11018;51.258;6.806;2023-07-20T06:57:17;24.60;;;14.10;;
4353;SDS011;11018;51.258;6.806;2023-07-20T06:59:42;22.57;;;14.33;;
4353;SDS011;11018;51.258;6.806;2023-07-20T07:02:08;18.73;;;14.17;;
4353;SDS011;11018;51.258;6.806;2023-07-20T07:04:33;22.70;;;14.80;;
4353;SDS011;11018;51.258;6.806;2023-07-20T07:06:59;20.50;;;13.20;;
4353;SDS011;11018;51.258;6.806;2023-07-20T07:09:25;18.13;;;13.40;;
4353;SDS011;11018;51.258;6.806;2023-07-20T07:11:50;20.37;;;13.87;;
4353;SDS011;11018;51.258;6.806;2023-07-20T07:14:18;19.65;;;13.02;;
4353;SDS011;11018;51.258;6.806;2023-07-20T07:16:45;23.25;;;13.52;;
4353;SDS011;11018;51.258;6.806;2023-07-20T07:19:10;20.90;;;14.10;;
4353;SDS011;11018;51.258;6.806;2023-07-20T07:21:36;16.30;;;13.40;;
4353;SDS011;11018;51.258;6.806;2023-07-20T07:24:01;15.20;;;10.20;;
4353;SDS011;11018;51.258;6.806;2023-07-20T07:26:27;15.17;;;9.13;;
4353;SDS011;11018;51.258;6.806;2023-07-20T07:28:52;13.60;;;8.60;;
4353;SDS011;11018;51.258;6.806;2023-07-20T07:31:18;10.73;;;7.47;;
4353;SDS011;11018;51.258;6.806;2023-07-20T07:33:43;11.00;;;8.20;;
4353;SDS011;11018;51.258;6.806;2023-07-20T07:36:09;11.50;;;8.00;;
4353;SDS011;11018;51.258;6.806;2023-07-20T07:38:34;9.80;;;7.55;;
4353;SDS011;11018;51.258;6.806;2023-07-20T07:41:00;10.90;;;7.63;;
4353;SDS011;11018;51.258;6.806;2023-07-20T07:43:26;8.35;;;6.68;;
4353;SDS011;11018;51.258;6.806;2023-07-20T07:45:53;7.80;;;6.07;;
4353;SDS011;11018;51.258;6.806;2023-07-20T07:48:20;6.55;;;4.63;;
4353;SDS011;11018;51.258;6.806;2023-07-20T07:50:46;7.40;;;3.40;;
4353;SDS011;11018;51.258;6.806;2023-07-20T07:53:12;4.93;;;2.80;;
4353;SDS011;11018;51.258;6.806;2023-07-20T07:55:37;4.70;;;3.33;;
4353;SDS011;11018;51.258;6.806;2023-07-20T07:58:03;7.00;;;4.95;;
4353;SDS011;11018;51.258;6.806;2023-07-20T08:00:28;9.23;;;4.30;;
4353;SDS011;11018;51.258;6.806;2023-07-20T08:02:54;7.40;;;6.33;;
4353;SDS011;11018;51.258;6.806;2023-07-20T08:05:19;7.00;;;6.25;;
4353;SDS011;11018;51.258;6.806;2023-07-20T08:07:45;6.50;;;5.80;;
4353;SDS011;11018;51.258;6.806;2023-07-20T08:10:11;8.20;;;5.90;;
4353;SDS011;11018;51.258;6.806;2023-07-20T08:12:36;8.25;;;6.20;;
4353;SDS011;11018;51.258;6.806;2023-07-20T08:15:02;8.50;;;6.22;;
4353;SDS011;11018;51.258;6.806;2023-07-20T08:17:29;10.30;;;6.15;;
4353;SDS011;11018;51.258;6.806;2023-07-20T08:19:54;6.23;;;5.60;;
4353;SDS011;11018;51.258;6.806;2023-07-20T08:22:20;6.80;;;5.00;;
4353;SDS011;11018;51.258;6.806;2023-07-20T08:24:45;6.88;;;5.10;;
4353;SDS011;11018;51.258;6.806;2023-07-20T08:27:11;6.30;;;4.75;;
4353;SDS011;11018;51.258;6.806;2023-07-20T08:29:37;5.43;;;4.80;;
4353;SDS011;11018;51.258;6.806;2023-07-20T08:32:03;9.70;;;5.70;;
4353;SDS011;11018;51.258;6.806;2023-07-20T08:34:30;5.85;;;5.20;;
4353;SDS011;11018;51.258;6.806;2023-07-20T08:36:56;8.30;;;6.17;;
4353;SDS011;11018;51.258;6.806;2023-07-20T08:39:22;12.90;;;9.50;;
4353;SDS011;11018;51.258;6.806;2023-07-20T08:41:48;10.30;;;8.20;;
4353;SDS011;11018;51.258;6.806;2023-07-20T08:44:14;11.53;;;8.00;;
4353;SDS011;11018;51.258;6.806;2023-07-20T08:46:40;9.30;;;6.50;;
4353;SDS011;11018;51.258;6.806;2023-07-20T08:49:07;8.03;;;5.80;;
4353;SDS011;11018;51.258;6.806;2023-07-20T08:51:33;6.35;;;4.80;;
4353;SDS011;11018;51.258;6.806;2023-07-20T08:54:01;6.82;;;3.63;;
4353;SDS011;11018;51.258;6.806;2023-07-20T08:56:26;3.80;;;2.80;;
4353;SDS011;11018;51.258;6.806;2023-07-20T08:58:53;6.13;;;3.20;;
4353;SDS011;11018;51.258;6.806;2023-07-20T09:01:19;3.13;;;2.83;;
4353;SDS011;11018;51.258;6.806;2023-07-20T09:03:47;4.30;;;3.10;;
4353;SDS011;11018;51.258;6.806;2023-07-20T09:06:13;15.20;;;4.60;;
4353;SDS011;11018;51.258;6.806;2023-07-20T09:08:39;3.53;;;3.22;;
4353;SDS011;11018;51.258;6.806;2023-07-20T09:11:05;4.90;;;2.87;;
4353;SDS011;11018;51.258;6.806;2023-07-20T09:13:34;5.20;;;3.50;;
4353;SDS011;11018;51.258;6.806;2023-07-20T09:16:00;3.78;;;3.22;;
4353;SDS011;11018;51.258;6.806;2023-07-20T09:18:26;3.53;;;2.92;;
4353;SDS011;11018;51.258;6.806;2023-07-20T09:20:57;5.07;;;3.60;;
4353;SDS011;11018;51.258;6.806;2023-07-20T09:23:34;6.27;;;3.40;;
4353;SDS011;11018;51.258;6.806;2023-07-20T09:26:11;4.45;;;2.80;;
4353;SDS011;11018;51.258;6.806;2023-07-20T09:28:51;2.50;;;2.30;;
4353;SDS011;11018;51.258;6.806;2023-07-20T09:31:20;7.00;;;3.03;;
4353;SDS011;11018;51.258;6.806;2023-07-20T09:33:47;4.45;;;3.20;;
4353;SDS011;11018;51.258;6.806;2023-07-20T09:36:13;2.78;;;2.10;;
4353;SDS011;11018;51.258;6.806;2023-07-20T09:38:42;2.50;;;1.63;;
4353;SDS011;11018;51.258;6.806;2023-07-20T09:41:12;2.60;;;1.80;;
4353;SDS011;11018;51.258;6.806;2023-07-20T09:43:38;6.03;;;1.70;;
4353;SDS011;11018;51.258;6.806;2023-07-20T09:46:04;5.05;;;1.65;;
4353;SDS011;11018;51.258;6.806;2023-07-20T09:48:30;4.93;;;1.60;;
4353;SDS011;11018;51.258;6.806;2023-07-20T09:50:56;3.53;;;1.40;;
4353;SDS011;11018;51.258;6.806;2023-07-20T09:53:22;2.20;;;1.67;;
4353;SDS011;11018;51.258;6.806;2023-07-20T09:55:50;3.00;;;1.70;;
4353;SDS011;11018;51.258;6.806;2023-07-20T09:58:17;3.60;;;2.10;;
4353;SDS011;11018;51.258;6.806;2023-07-20T10:00:43;2.72;;;1.70;;
4353;SDS011;11018;51.258;6.806;2023-07-20T10:03:12;5.15;;;2.90;;
4353;SDS011;11018;51.258;6.806;2023-07-20T10:05:43;5.18;;;3.10;;
4353;SDS011;11018;51.258;6.806;2023-07-20T10:08:12;3.80;;;2.40;;
4353;SDS011;11018;51.258;6.806;2023-07-20T10:10:40;3.50;;;2.30;;
4353;SDS011;11018;51.258;6.806;2023-07-20T10:13:10;2.07;;;1.80;;
4353;SDS011;11018;51.258;6.806;2023-07-20T10:15:46;2.00;;;1.63;;
4353;SDS011;11018;51.258;6.806;2023-07-20T10:18:50;2.80;;;1.38;;
4353;SDS011;11018;51.258;6.806;2023-07-20T10:21:19;2.88;;;1.20;;
4353;SDS011;11018;51.258;6.806;2023-07-20T10:23:47;1.98;;;1.50;;
4353;SDS011;11018;51.258;6.806;2023-07-20T10:26:13;1.90;;;1.40;;
4353;SDS011;11018;51.258;6.806;2023-07-20T10:28:39;2.83;;;1.10;;
4353;SDS011;11018;51.258;6.806;2023-07-20T10:31:07;3.33;;;1.30;;
4353;SDS011;11018;51.258;6.806;2023-07-20T10:33:34;2.10;;;1.30;;
4353;SDS011;11018;51.258;6.806;2023-07-20T10:36:01;2.30;;;1.60;;
4353;SDS011;11018;51.258;6.806;2023-07-20T10:38:44;1.45;;;1.25;;
4353;SDS011;11018;51.258;6.806;2023-07-20T10:43:45;2.85;;;1.52;;
4353;SDS011;11018;51.258;6.806;2023-07-20T10:46:12;1.80;;;1.60;;
4353;SDS011;11018;51.258;6.806;2023-07-20T10:51:29;1.55;;;1.20;;
4353;SDS011;11018;51.258;6.806;2023-07-20T10:54:03;2.08;;;1.50;;
4353;SDS011;11018;51.258;6.806;2023-07-20T10:56:28;2.00;;;1.30;;
4353;SDS011;11018;51.258;6.806;2023-07-20T10:58:57;2.90;;;1.30;;
4353;SDS011;11018;51.258;6.806;2023-07-20T11:01:27;3.13;;;1.30;;
4353;SDS011;11018;51.258;6.806;2023-07-20T11:04:02;2.80;;;1.20;;
4353;SDS011;11018;51.258;6.806;2023-07-20T11:06:33;1.77;;;1.27;;
4353;SDS011;11018;51.258;6.806;2023-07-20T11:11:33;2.60;;;1.27;;
4353;SDS011;11018;51.258;6.806;2023-07-20T11:14:10;1.88;;;1.10;;
4353;SDS011;11018;51.258;6.806;2023-07-20T11:16:46;2.88;;;1.30;;
4353;SDS011;11018;51.258;6.806;2023-07-20T11:19:13;2.20;;;1.15;;
4353;SDS011;11018;51.258;6.806;2023-07-20T11:21:45;2.60;;;1.13;;
4353;SDS011;11018;51.258;6.806;2023-07-20T11:24:12;1.30;;;1.10;;
4353;SDS011;11018;51.258;6.806;2023-07-20T11:29:08;2.30;;;1.17;;
4353;SDS011;11018;51.258;6.806;2023-07-20T11:31:40;1.50;;;1.10;;
4353;SDS011;11018;51.258;6.806;2023-07-20T11:34:09;1.55;;;1.30;;
4353;SDS011;11018;51.258;6.806;2023-07-20T11:36:40;1.27;;;1.02;;
4353;SDS011;11018;51.258;6.806;2023-07-20T11:39:10;2.60;;;1.10;;
4353;SDS011;11018;51.258;6.806;2023-07-20T11:41:37;2.90;;;1.40;;
4353;SDS011;11018;51.258;6.806;2023-07-20T11:44:03;3.20;;;2.75;;
4353;SDS011;11018;51.258;6.806;2023-07-20T11:46:31;3.05;;;1.08;;
4353;SDS011;11018;51.258;6.806;2023-07-20T11:49:00;3.92;;;1.40;;
4353;SDS011;11018;51.258;6.806;2023-07-20T11:51:29;3.70;;;1.30;;
4353;SDS011;11018;51.258;6.806;2023-07-20T11:53:57;2.60;;;1.20;;
4353;SDS011;11018;51.258;6.806;2023-07-20T11:56:23;2.92;;;1.30;;
4353;SDS011;11018;51.258;6.806;2023-07-20T11:58:50;4.50;;;1.40;;
4353;SDS011;11018;51.258;6.806;2023-07-20T12:01:19;3.00;;;1.20;;
4353;SDS011;11018;51.258;6.806;2023-07-20T12:03:45;2.20;;;1.10;;
4353;SDS011;11018;51.258;6.806;2023-07-20T12:06:13;1.80;;;1.48;;
4353;SDS011;11018;51.258;6.806;2023-07-20T12:08:41;3.67;;;1.50;;
4353;SDS011;11018;51.258;6.806;2023-07-20T12:11:09;2.60;;;1.30;;
4353;SDS011;11018;51.258;6.806;2023-07-20T12:13:35;2.00;;;1.30;;
4353;SDS011;11018;51.258;6.806;2023-07-20T12:16:09;1.40;;;1.20;;
4353;SDS011;11018;51.258;6.806;2023-07-20T12:18:44;1.60;;;1.10;;
4353;SDS011;11018;51.258;6.806;2023-07-20T12:21:10;2.20;;;1.20;;
4353;SDS011;11018;51.258;6.806;2023-07-20T12:23:39;2.03;;;1.37;;
4353;SDS011;11018;51.258;6.806;2023-07-20T12:26:09;1.85;;;1.20;;
4353;SDS011;11018;51.258;6.806;2023-07-20T12:28:39;2.20;;;1.33;;
4353;SDS011;11018;51.258;6.806;2023-07-20T12:31:08;1.85;;;1.30;;
4353;SDS011;11018;51.258;6.806;2023-07-20T12:33:35;2.83;;;1.40;;
4353;SDS011;11018;51.258;6.806;2023-07-20T12:36:01;5.95;;;1.13;;
4353;SDS011;11018;51.258;6.806;2023-07-20T12:38:27;1.60;;;1.00;;
4353;SDS011;11018;51.258;6.806;2023-07-20T12:40:53;1.83;;;1.30;;
4353;SDS011;11018;51.258;6.806;2023-07-20T12:43:22;5.93;;;1.23;;
4353;SDS011;11018;51.258;6.806;2023-07-20T12:45:47;2.30;;;1.30;;
4353;SDS011;11018;51.258;6.806;2023-07-20T12:48:13;1.40;;;1.00;;
4353;SDS011;11018;51.258;6.806;2023-07-20T12:50:39;3.42;;;1.23;;
4353;SDS011;11018;51.258;6.806;2023-07-20T12:53:04;1.40;;;1.20;;
4353;SDS011;11018;51.258;6.806;2023-07-20T12:55:30;1.58;;;1.30;;
4353;SDS011;11018;51.258;6.806;2023-07-20T12:57:56;3.72;;;1.40;;
4353;SDS011;11018;51.258;6.806;2023-07-20T13:00:21;2.03;;;1.20;;
4353;SDS011;11018;51.258;6.806;2023-07-20T13:02:48;3.08;;;1.20;;
4353;SDS011;11018;51.258;6.806;2023-07-20T13:05:14;3.40;;;2.13;;
4353;SDS011;11018;51.258;6.806;2023-07-20T13:07:40;2.10;;;1.40;;
4353;SDS011;11018;51.258;6.806;2023-07-20T13:10:06;2.50;;;1.27;;
4353;SDS011;11018;51.258;6.806;2023-07-20T13:12:33;3.38;;;1.30;;
4353;SDS011;11018;51.258;6.806;2023-07-20T13:15:01;2.03;;;1.40;;
4353;SDS011;11018;51.258;6.806;2023-07-20T13:17:30;1.97;;;1.40;;
4353;SDS011;11018;51.258;6.806;2023-07-20T13:19:56;3.10;;;1.23;;
4353;SDS011;11018;51.258;6.806;2023-07-20T13:22:22;1.52;;;1.00;;
4353;SDS011;11018;51.258;6.806;2023-07-20T13:24:48;1.90;;;1.17;;
4353;SDS011;11018;51.258;6.806;2023-07-20T13:27:15;2.03;;;1.20;;
4353;SDS011;11018;51.258;6.806;2023-07-20T13:29:43;4.65;;;1.30;;
4353;SDS011;11018;51.258;6.806;2023-07-20T13:32:09;3.28;;;1.10;;
4353;SDS011;11018;51.258;6.806;2023-07-20T13:34:35;3.50;;;1.20;;
4353;SDS011;11018;51.258;6.806;2023-07-20T13:37:01;1.40;;;1.20;;
4353;SDS011;11018;51.258;6.806;2023-07-20T13:39:27;3.27;;;1.40;;
4353;SDS011;11018;51.258;6.806;2023-07-20T13:41:53;1.88;;;1.30;;
4353;SDS011;11018;51.258;6.806;2023-07-20T13:44:19;3.57;;;1.53;;
4353;SDS011;11018;51.258;6.806;2023-07-20T13:46:48;3.15;;;1.23;;
4353;SDS011;11018;51.258;6.806;2023-07-20T13:49:14;2.10;;;1.20;;
4353;SDS011;11018;51.258;6.806;2023-07-20T13:51:41;2.20;;;1.13;;
4353;SDS011;11018;51.258;6.806;2023-07-20T13:54:07;1.60;;;1.15;;
4353;SDS011;11018;51.258;6.806;2023-07-20T13:56:33;2.25;;;1.42;;
4353;SDS011;11018;51.258;6.806;2023-07-20T13:58:58;3.47;;;1.48;;
4353;SDS011;11018;51.258;6.806;2023-07-20T14:01:24;3.80;;;1.20;;
4353;SDS011;11018;51.258;6.806;2023-07-20T14:03:50;2.08;;;1.25;;
4353;SDS011;11018;51.258;6.806;2023-07-20T14:06:16;4.50;;;1.50;;
4353;SDS011;11018;51.258;6.806;2023-07-20T14:08:42;4.37;;;1.60;;
4353;SDS011;11018;51.258;6.806;2023-07-20T14:11:11;1.77;;;1.10;;
4353;SDS011;11018;51.258;6.806;2023-07-20T14:13:37;1.90;;;1.20;;
4353;SDS011;11018;51.258;6.806;2023-07-20T14:16:03;3.03;;;1.10;;
4353;SDS011;11018;51.258;6.806;2023-07-20T14:18:28;1.70;;;1.10;;
4353;SDS011;11018;51.258;6.806;2023-07-20T14:20:54;9.37;;;1.30;;
4353;SDS011;11018;51.258;6.806;2023-07-20T14:23:20;2.33;;;0.95;;
4353;SDS011;11018;51.258;6.806;2023-07-20T14:25:45;12.10;;;1.30;;
4353;SDS011;11018;51.258;6.806;2023-07-20T14:28:11;3.10;;;1.20;;
4353;SDS011;11018;51.258;6.806;2023-07-20T14:30:37;3.65;;;1.40;;
4353;SDS011;11018;51.258;6.806;2023-07-20T14:33:03;2.20;;;1.00;;
4353;SDS011;11018;51.258;6.806;2023-07-20T14:35:28;5.00;;;1.20;;
4353;SDS011;11018;51.258;6.806;2023-07-20T14:37:54;1.90;;;1.08;;
4353;SDS011;11018;51.258;6.806;2023-07-20T14:40:19;3.50;;;1.30;;
4353;SDS011;11018;51.258;6.806;2023-07-20T14:42:45;1.90;;;1.13;;
4353;SDS011;11018;51.258;6.806;2023-07-20T14:45:11;2.20;;;1.27;;
4353;SDS011;11018;51.258;6.806;2023-07-20T14:47:37;2.50;;;1.00;;
4353;SDS011;11018;51.258;6.806;2023-07-20T14:50:02;3.00;;;1.10;;
4353;SDS011;11018;51.258;6.806;2023-07-20T14:52:28;1.90;;;1.20;;
4353;SDS011;11018;51.258;6.806;2023-07-20T14:54:54;6.13;;;1.50;;
4353;SDS011;11018;51.258;6.806;2023-07-20T14:57:20;2.45;;;1.20;;
4353;SDS011;11018;51.258;6.806;2023-07-20T14:59:48;1.15;;;1.05;;
4353;SDS011;11018;51.258;6.806;2023-07-20T15:02:14;1.80;;;1.40;;
4353;SDS011;11018;51.258;6.806;2023-07-20T15:04:50;1.63;;;1.10;;
4353;SDS011;11018;51.258;6.806;2023-07-20T15:07:16;1.95;;;1.20;;
4353;SDS011;11018;51.258;6.806;2023-07-20T15:09:47;2.97;;;1.27;;